createdAt,value
2022-10-17T00:00:43.234Z,47.67
2022-10-17T00:02:44.896Z,47.27
2022-10-17T00:04:46.493Z,48.06
2022-10-17T00:06:48.073Z,45.92
2022-10-17T00:08:49.713Z,46.47
2022-10-17T00:11:00.266Z,47.07
2022-10-17T00:13:02.119Z,47.27
2022-10-17T00:15:07.808Z,48.32
2022-10-17T00:17:09.481Z,47.75
2022-10-17T00:19:11.099Z,47.83
2022-10-17T00:21:17.558Z,46.71
2022-10-17T00:23:19.627Z,46.91
2022-10-17T00:25:21.283Z,45.97
2022-10-17T00:27:22.936Z,46.10
2022-10-17T00:29:24.551Z,45.85
2022-10-17T00:31:26.205Z,45.96
2022-10-17T00:33:29.435Z,46.90
2022-10-17T00:35:31.251Z,46.03
2022-10-17T00:37:33.582Z,46.70
2022-10-17T00:39:35.237Z,46.60
2022-10-17T00:41:36.852Z,47.32
2022-10-17T00:44:31.913Z,47.67
2022-10-17T00:46:38.441Z,46.27
2022-10-17T00:48:40.261Z,47.22
2022-10-17T00:50:44.377Z,47.38
2022-10-17T00:52:48.277Z,46.62
2022-10-17T00:54:54.662Z,45.27
2022-10-17T00:56:56.788Z,45.50
2022-10-17T00:58:58.957Z,46.34
2022-10-17T01:01:02.977Z,45.95
2022-10-17T01:03:05.030Z,46.83
2022-10-17T01:05:07.270Z,46.19
2022-10-17T01:07:10.031Z,45.20
2022-10-17T01:09:11.662Z,45.05
2022-10-17T01:11:37.991Z,45.85
2022-10-17T01:13:48.740Z,45.79
2022-10-17T01:16:07.857Z,45.46
2022-10-17T01:18:46.102Z,45.92
2022-10-17T01:21:24.796Z,46.04
2022-10-17T01:23:41.349Z,45.50
2022-10-17T01:25:45.689Z,45.53
2022-10-17T01:27:56.803Z,45.63
2022-10-17T01:30:16.645Z,45.91
2022-10-17T01:32:20.647Z,46.01
2022-10-17T01:34:33.517Z,46.01
2022-10-17T01:36:58.978Z,45.99
2022-10-17T01:39:30.233Z,45.48
2022-10-17T01:41:40.274Z,46.70
2022-10-17T01:43:51.352Z,46.55
2022-10-17T01:46:02.761Z,46.69
2022-10-17T01:48:11.601Z,47.49
2022-10-17T01:50:23.555Z,46.72
2022-10-17T01:52:31.339Z,47.03
2022-10-17T01:54:41.657Z,47.08
2022-10-17T01:56:45.939Z,46.95
2022-10-17T01:59:00.540Z,47.34
2022-10-17T02:01:06.774Z,47.32
2022-10-17T02:03:13.335Z,46.98
2022-10-17T02:05:17.460Z,46.47
2022-10-17T02:07:19.109Z,48.16
2022-10-17T02:09:26.260Z,47.68
2022-10-17T02:11:28.433Z,47.20
2022-10-17T02:13:32.698Z,46.52
2022-10-17T02:16:03.631Z,46.34
2022-10-17T02:18:33.751Z,46.46
2022-10-17T02:20:50.701Z,45.69
2022-10-17T02:22:57.040Z,45.99
2022-10-17T02:25:01.426Z,45.80
2022-10-17T02:27:12.591Z,44.40
2022-10-17T02:29:18.947Z,46.31
2022-10-17T02:31:25.447Z,45.74
2022-10-17T02:33:36.458Z,45.12
2022-10-17T02:35:43.497Z,45.31
2022-10-17T02:37:47.428Z,44.04
2022-10-17T02:39:51.135Z,43.26
2022-10-17T02:41:55.526Z,45.19
2022-10-17T02:44:00.196Z,44.15
2022-10-17T02:46:05.582Z,45.07
2022-10-17T02:48:18.284Z,44.18
2022-10-17T02:52:57.244Z,44.72
2022-10-17T02:55:05.414Z,45.59
2022-10-17T02:57:19.064Z,45.32
2022-10-17T02:59:23.038Z,44.86
2022-10-17T03:01:25.572Z,44.92
2022-10-17T03:03:30.138Z,44.97
2022-10-17T03:05:31.698Z,44.33
2022-10-17T03:07:33.393Z,43.99
2022-10-17T03:09:35.036Z,44.32
2022-10-17T03:11:36.661Z,44.52
2022-10-17T03:13:39.856Z,45.20
2022-10-17T03:15:41.764Z,48.68
2022-10-17T03:17:43.389Z,47.91
2022-10-17T03:19:44.988Z,47.25
2022-10-17T03:21:46.592Z,46.40
2022-10-17T03:23:48.272Z,45.73
2022-10-17T03:25:49.878Z,44.72
2022-10-17T03:27:51.964Z,45.35
2022-10-17T03:29:53.538Z,45.62
2022-10-17T03:31:55.149Z,45.77
2022-10-17T03:33:56.812Z,45.29
2022-10-17T03:35:58.403Z,46.46
2022-10-17T03:38:00.109Z,45.52
2022-10-17T03:40:01.787Z,45.62
2022-10-17T03:42:03.430Z,44.60
2022-10-17T03:44:05.159Z,44.17
2022-10-17T03:46:07.589Z,43.77
2022-10-17T03:48:09.259Z,44.00
2022-10-17T03:50:10.890Z,43.97
2022-10-17T03:52:13.597Z,46.23
2022-10-17T03:54:15.208Z,45.56
2022-10-17T03:56:24.502Z,46.37
2022-10-17T03:58:26.095Z,46.25
2022-10-17T04:00:27.675Z,45.31
2022-10-17T04:02:29.396Z,45.46
2022-10-17T04:04:31.029Z,45.63
2022-10-17T04:06:32.853Z,44.91
2022-10-17T04:08:35.081Z,44.80
2022-10-17T04:10:36.699Z,45.40
2022-10-17T04:12:38.476Z,46.46
2022-10-17T04:14:40.263Z,45.89
2022-10-17T04:16:41.885Z,45.24
2022-10-17T04:18:43.949Z,44.86
2022-10-17T04:20:45.547Z,47.27
2022-10-17T04:22:47.133Z,47.10
2022-10-17T04:24:49.070Z,45.68
2022-10-17T04:26:51.323Z,47.18
2022-10-17T04:28:53.223Z,45.98
2022-10-17T04:31:09.846Z,45.60
2022-10-17T04:33:11.469Z,45.56
2022-10-17T04:35:13.086Z,46.24
2022-10-17T04:37:14.717Z,46.69
2022-10-17T04:39:16.316Z,44.98
2022-10-17T04:41:19.055Z,46.15
2022-10-17T04:43:20.808Z,46.59
2022-10-17T04:45:22.389Z,45.92
2022-10-17T04:47:24.027Z,45.17
2022-10-17T04:49:25.663Z,44.69
2022-10-17T04:51:27.357Z,44.73
2022-10-17T04:53:32.205Z,44.25
2022-10-17T04:55:38.583Z,44.00
2022-10-17T04:57:40.176Z,44.63
2022-10-17T04:59:41.788Z,45.97
2022-10-17T05:01:43.461Z,48.78
2022-10-17T05:03:45.532Z,46.06
2022-10-17T05:05:47.579Z,46.66
2022-10-17T05:07:49.178Z,45.61
2022-10-17T05:09:50.766Z,45.17
2022-10-17T05:11:52.450Z,45.32
2022-10-17T05:13:57.155Z,47.70
2022-10-17T05:16:02.312Z,48.41
2022-10-17T05:18:05.629Z,48.04
2022-10-17T05:20:08.383Z,46.36
2022-10-17T05:22:09.980Z,47.06
2022-10-17T05:24:14.453Z,46.96
2022-10-17T05:26:16.310Z,47.31
2022-10-17T05:28:17.885Z,47.59
2022-10-17T05:30:19.591Z,47.56
2022-10-17T05:32:21.162Z,46.61
2022-10-17T05:34:22.787Z,46.09
2022-10-17T05:36:24.476Z,46.30
2022-10-17T05:38:26.914Z,46.19
2022-10-17T05:40:28.527Z,46.12
2022-10-17T05:42:30.328Z,46.04
2022-10-17T05:44:32.124Z,45.41
2022-10-17T05:46:33.735Z,45.46
2022-10-17T05:48:35.419Z,45.97
2022-10-17T05:50:37.078Z,45.96
2022-10-17T05:52:38.685Z,44.59
2022-10-17T05:54:40.306Z,45.53
2022-10-17T05:56:41.910Z,44.84
2022-10-17T05:58:50.444Z,44.95
2022-10-17T06:00:58.320Z,44.76
2022-10-17T06:02:59.874Z,44.27
2022-10-17T06:05:01.495Z,43.45
2022-10-17T06:07:03.121Z,44.10
2022-10-17T06:09:04.860Z,43.91
2022-10-17T06:11:09.932Z,44.01
2022-10-17T06:13:12.230Z,44.10
2022-10-17T06:15:13.930Z,43.89
2022-10-17T06:17:16.420Z,45.23
2022-10-17T06:19:18.221Z,46.03
2022-10-17T06:21:24.987Z,45.72
2022-10-17T06:23:28.043Z,45.79
2022-10-17T06:25:33.794Z,45.41
2022-10-17T06:27:35.424Z,46.06
2022-10-17T06:29:37.014Z,46.92
2022-10-17T06:31:38.782Z,46.32
2022-10-17T06:33:40.671Z,45.87
2022-10-17T06:35:42.319Z,44.13
2022-10-17T06:37:43.984Z,44.07
2022-10-17T06:39:45.671Z,44.07
2022-10-17T06:41:47.341Z,45.42
2022-10-17T06:43:48.976Z,51.28
2022-10-17T06:45:50.667Z,48.61
2022-10-17T06:47:52.412Z,47.47
2022-10-17T06:49:54.041Z,48.34
2022-10-17T06:51:55.720Z,46.93
2022-10-17T06:53:58.642Z,46.99
2022-10-17T06:56:04.569Z,45.07
2022-10-17T06:58:06.221Z,44.25
2022-10-17T07:00:08.332Z,43.68
2022-10-17T07:02:11.432Z,44.84
2022-10-17T07:04:13.066Z,50.10
2022-10-17T07:06:14.706Z,46.79
2022-10-17T07:08:17.074Z,45.07
2022-10-17T07:10:18.815Z,45.49
2022-10-17T07:12:20.398Z,48.61
2022-10-17T07:14:22.193Z,46.19
2022-10-17T07:16:23.886Z,46.21
2022-10-17T07:18:25.458Z,47.65
2022-10-17T07:20:27.151Z,46.91
2022-10-17T07:22:28.913Z,47.56
2022-10-17T07:24:30.528Z,46.43
2022-10-17T07:26:32.155Z,45.30
2022-10-17T07:28:35.811Z,45.02
2022-10-17T07:30:37.514Z,44.74
2022-10-17T07:32:39.117Z,47.68
2022-10-17T07:34:40.718Z,45.72
2022-10-17T07:36:42.419Z,45.92
2022-10-17T07:38:44.143Z,46.50
2022-10-17T07:40:45.707Z,46.81
2022-10-17T07:42:47.349Z,46.02
2022-10-17T07:44:49.022Z,48.84
2022-10-17T07:46:50.687Z,48.43
2022-10-17T07:48:52.357Z,47.08
2022-10-17T07:50:53.933Z,46.42
2022-10-17T07:52:55.528Z,46.24
2022-10-17T07:54:57.182Z,46.94
2022-10-17T07:56:58.964Z,46.21
2022-10-17T07:59:02.679Z,48.55
2022-10-17T08:01:16.205Z,46.96
2022-10-17T08:03:17.947Z,47.87
2022-10-17T08:05:19.547Z,47.68
2022-10-17T08:07:25.325Z,47.28
2022-10-17T08:09:28.573Z,46.77
2022-10-17T08:11:30.289Z,47.26
2022-10-17T08:13:32.297Z,47.90
2022-10-17T08:15:33.982Z,47.28
2022-10-17T08:17:36.878Z,48.18
2022-10-17T08:19:40.640Z,47.63
2022-10-17T08:21:43.692Z,48.05
2022-10-17T08:23:45.283Z,48.19
2022-10-17T08:25:47.036Z,49.25
2022-10-17T08:27:48.918Z,48.28
2022-10-17T08:29:54.649Z,48.06
2022-10-17T08:32:00.914Z,48.26
2022-10-17T08:34:03.481Z,47.24
2022-10-17T08:36:06.200Z,48.45
2022-10-17T08:38:10.001Z,48.21
2022-10-17T08:40:25.814Z,48.65
2022-10-17T08:42:51.247Z,47.97
2022-10-17T08:45:07.676Z,50.00
2022-10-17T08:47:15.644Z,49.69
2022-10-17T08:49:46.973Z,47.59
2022-10-17T08:52:04.617Z,49.07
2022-10-17T08:54:19.773Z,49.02
2022-10-17T08:56:44.504Z,50.15
2022-10-17T08:58:50.196Z,49.74
2022-10-17T09:01:28.808Z,49.46
2022-10-17T09:03:30.436Z,47.50
2022-10-17T09:05:32.052Z,48.48
2022-10-17T09:07:52.872Z,49.22
2022-10-17T09:10:03.621Z,49.41
2022-10-17T09:12:49.971Z,50.30
2022-10-17T09:15:27.839Z,50.91
2022-10-17T09:17:45.175Z,49.57
2022-10-17T09:19:52.047Z,49.07
2022-10-17T09:22:27.379Z,48.10
2022-10-17T09:24:55.659Z,47.46
2022-10-17T09:26:57.275Z,49.91
2022-10-17T09:29:00.838Z,48.45
2022-10-17T09:31:19.504Z,47.41
2022-10-17T09:33:35.174Z,49.01
2022-10-17T09:35:45.946Z,47.80
2022-10-17T09:37:49.647Z,47.49
2022-10-17T09:39:51.466Z,46.34
2022-10-17T09:41:58.760Z,46.65
2022-10-17T09:44:16.340Z,46.08
2022-10-17T09:46:36.688Z,46.42
2022-10-17T09:48:53.305Z,47.55
2022-10-17T09:51:08.319Z,47.79
2022-10-17T09:53:23.504Z,48.51
2022-10-17T09:55:39.135Z,47.96
2022-10-17T09:58:02.236Z,46.55
2022-10-17T10:00:06.345Z,47.68
2022-10-17T10:02:13.873Z,47.51
2022-10-17T10:04:17.337Z,46.93
2022-10-17T10:06:20.961Z,47.76
2022-10-17T10:08:25.440Z,46.92
2022-10-17T10:10:29.068Z,46.42
2022-10-17T10:12:36.369Z,46.71
2022-10-17T10:14:39.722Z,46.96
2022-10-17T10:16:47.128Z,47.58
2022-10-17T10:18:50.971Z,47.87
2022-10-17T10:21:17.894Z,48.55
2022-10-17T10:23:21.470Z,46.79
2022-10-17T10:25:23.103Z,47.21
2022-10-17T10:27:25.804Z,47.81
2022-10-17T10:29:44.617Z,46.08
2022-10-17T10:31:47.397Z,46.11
2022-10-17T10:33:50.900Z,47.08
2022-10-17T10:36:05.200Z,47.53
2022-10-17T10:38:18.188Z,47.40
2022-10-17T10:40:37.410Z,46.69
2022-10-17T10:42:40.483Z,47.15
2022-10-17T10:44:42.600Z,45.67
2022-10-17T10:46:44.522Z,45.34
2022-10-17T10:48:54.142Z,46.34
2022-10-17T10:50:58.341Z,46.53
2022-10-17T10:53:21.231Z,46.48
2022-10-17T10:55:40.543Z,47.05
2022-10-17T10:57:45.264Z,45.73
2022-10-17T10:59:58.436Z,45.73
2022-10-17T11:03:21.840Z,52.92
2022-10-17T11:05:23.378Z,51.24
2022-10-17T11:07:39.616Z,50.84
2022-10-17T11:10:08.274Z,50.83
2022-10-17T11:12:25.193Z,51.04
2022-10-17T11:14:48.653Z,51.14
2022-10-17T11:17:06.056Z,49.94
2022-10-17T11:19:16.304Z,49.83
2022-10-17T11:21:47.741Z,49.35
2022-10-17T11:24:00.085Z,49.31
2022-10-17T11:26:08.794Z,49.16
2022-10-17T11:28:22.705Z,49.31
2022-10-17T11:30:28.923Z,47.99
2022-10-17T11:32:48.097Z,49.13
2022-10-17T11:34:53.656Z,48.23
2022-10-17T11:37:01.931Z,49.21
2022-10-17T11:39:06.524Z,49.08
2022-10-17T11:41:17.340Z,47.56
2022-10-17T11:43:56.689Z,47.88
2022-10-17T11:46:16.166Z,48.31
2022-10-17T11:48:37.375Z,47.44
2022-10-17T11:53:09.217Z,46.76
2022-10-17T11:55:24.807Z,46.94
2022-10-17T11:57:32.827Z,47.15
2022-10-17T12:00:00.627Z,47.02
2022-10-17T12:02:06.424Z,47.25
2022-10-17T12:04:41.978Z,46.70
2022-10-17T12:07:11.143Z,47.17
2022-10-17T12:09:52.476Z,46.67
2022-10-17T12:11:57.317Z,46.73
2022-10-17T12:14:00.079Z,46.82
2022-10-17T12:16:19.683Z,47.07
2022-10-17T12:18:28.485Z,46.73
2022-10-17T12:20:33.288Z,46.17
2022-10-17T12:22:34.882Z,45.95
2022-10-17T12:24:42.744Z,45.05
2022-10-17T12:26:44.308Z,46.69
2022-10-17T12:28:48.063Z,46.74
2022-10-17T12:30:53.315Z,46.62
2022-10-17T12:33:22.689Z,45.67
2022-10-17T12:35:26.148Z,46.38
2022-10-17T12:37:45.736Z,46.00
2022-10-17T12:39:47.333Z,46.50
2022-10-17T12:41:48.904Z,45.63
2022-10-17T12:43:54.467Z,45.08
2022-10-17T12:46:05.440Z,45.32
2022-10-17T12:48:10.013Z,45.89
2022-10-17T12:50:53.807Z,44.71
2022-10-17T12:53:03.623Z,44.75
2022-10-17T12:55:11.932Z,44.57
2022-10-17T12:57:50.583Z,44.86
2022-10-17T12:59:56.628Z,44.50
2022-10-17T13:02:03.557Z,44.45
2022-10-17T13:04:08.607Z,43.36
2022-10-17T13:06:24.889Z,43.32
2022-10-17T13:08:54.862Z,43.90
2022-10-17T13:10:58.342Z,44.13
2022-10-17T13:13:17.037Z,43.88
2022-10-17T13:15:20.144Z,42.87
2022-10-17T13:17:25.683Z,42.84
2022-10-17T13:19:31.772Z,43.66
2022-10-17T13:21:33.401Z,43.06
2022-10-17T13:23:37.727Z,43.11
2022-10-17T13:25:39.726Z,43.58
2022-10-17T13:27:41.365Z,43.59
2022-10-17T13:29:44.660Z,43.68
2022-10-17T13:31:54.970Z,44.21
2022-10-17T13:33:59.351Z,43.80
2022-10-17T13:36:04.734Z,44.35
2022-10-17T13:38:09.660Z,43.44
2022-10-17T13:40:49.485Z,42.59
2022-10-17T13:42:48.893Z,42.43
2022-10-17T13:44:50.743Z,42.52
2022-10-17T13:46:52.970Z,42.62
2022-10-17T13:48:54.628Z,43.42
2022-10-17T13:51:03.046Z,43.40
2022-10-17T13:53:08.017Z,43.36
2022-10-17T13:55:17.489Z,43.25
2022-10-17T13:57:28.382Z,43.35
2022-10-17T13:59:41.937Z,43.10
2022-10-17T14:01:43.579Z,43.38
2022-10-17T14:03:49.137Z,43.55
2022-10-17T14:08:22.957Z,42.74
2022-10-17T14:10:37.492Z,42.99
2022-10-17T14:12:43.019Z,43.44
2022-10-17T14:15:10.404Z,43.10
2022-10-17T14:17:19.116Z,42.30
2022-10-17T14:19:36.948Z,42.14
2022-10-17T14:21:44.167Z,43.24
2022-10-17T14:23:46.364Z,43.95
2022-10-17T14:25:48.117Z,42.14
2022-10-17T14:28:04.033Z,42.36
2022-10-17T14:30:51.659Z,41.59
2022-10-17T14:32:48.670Z,42.26
2022-10-17T14:35:00.705Z,42.04
2022-10-17T14:37:47.694Z,41.61
2022-10-17T14:39:51.359Z,41.51
2022-10-17T14:41:53.965Z,41.43
2022-10-17T14:43:59.112Z,42.11
2022-10-17T14:46:02.095Z,41.34
2022-10-17T14:48:17.438Z,40.96
2022-10-17T14:50:25.978Z,42.77
2022-10-17T14:52:32.366Z,42.70
2022-10-17T14:54:36.343Z,42.87
2022-10-17T14:56:41.699Z,43.29
2022-10-17T14:58:43.238Z,42.71
2022-10-17T15:02:14.840Z,48.41
2022-10-17T15:04:16.952Z,47.28
2022-10-17T15:06:21.235Z,46.75
2022-10-17T15:08:24.483Z,46.26
2022-10-17T15:10:29.391Z,45.89
2022-10-17T15:12:32.774Z,45.84
2022-10-17T15:14:34.558Z,45.50
2022-10-17T15:16:37.251Z,45.03
2022-10-17T15:18:38.805Z,44.32
2022-10-17T15:20:40.582Z,44.74
2022-10-17T15:22:43.561Z,44.10
2022-10-17T15:24:46.299Z,44.53
2022-10-17T15:26:50.976Z,43.85
2022-10-17T15:28:54.054Z,43.81
2022-10-17T15:30:55.616Z,43.65
2022-10-17T15:32:57.519Z,43.58
2022-10-17T15:34:59.161Z,43.88
2022-10-17T15:37:00.934Z,43.33
2022-10-17T15:39:03.529Z,44.02
2022-10-17T15:41:05.191Z,43.33
2022-10-17T15:43:06.820Z,42.78
2022-10-17T15:45:15.169Z,42.71
2022-10-17T15:47:31.507Z,43.28
2022-10-17T15:49:34.675Z,43.49
2022-10-17T15:51:36.304Z,42.72
2022-10-17T15:53:37.995Z,42.88
2022-10-17T15:55:39.749Z,43.29
2022-10-17T15:57:43.719Z,43.82
2022-10-17T15:59:47.041Z,43.09
2022-10-17T16:01:48.783Z,43.05
2022-10-17T16:03:50.830Z,42.59
2022-10-17T16:05:53.778Z,42.59
2022-10-17T16:07:56.059Z,43.19
2022-10-17T16:09:57.672Z,43.25
2022-10-17T16:12:01.176Z,43.92
2022-10-17T16:14:10.053Z,43.05
2022-10-17T16:16:12.299Z,43.84
2022-10-17T16:18:14.189Z,42.56
2022-10-17T16:20:16.450Z,42.39
2022-10-17T16:22:36.755Z,42.47
2022-10-17T16:24:38.296Z,42.52
2022-10-17T16:26:40.466Z,42.63
2022-10-17T16:28:46.343Z,42.97
2022-10-17T16:30:49.295Z,42.34
2022-10-17T16:32:51.706Z,43.03
2022-10-17T16:34:53.249Z,42.55
2022-10-17T16:36:54.818Z,42.49
2022-10-17T16:38:56.560Z,42.55
2022-10-17T16:40:58.106Z,42.81
2022-10-17T16:43:00.138Z,42.92
2022-10-17T16:45:01.794Z,42.17
2022-10-17T16:47:06.265Z,42.25
2022-10-17T16:49:08.151Z,42.60
2022-10-17T16:51:11.251Z,43.30
2022-10-17T16:53:13.011Z,43.49
2022-10-17T16:55:15.050Z,43.53
2022-10-17T16:57:16.720Z,43.04
2022-10-17T16:59:18.249Z,42.63
2022-10-17T17:01:23.329Z,42.68
2022-10-17T17:03:24.876Z,42.90
2022-10-17T17:05:26.535Z,42.82
2022-10-17T17:07:29.734Z,42.82
2022-10-17T17:09:31.774Z,42.75
2022-10-17T17:11:33.305Z,42.97
2022-10-17T17:13:35.219Z,43.54
2022-10-17T17:15:38.416Z,43.17
2022-10-17T17:17:55.870Z,43.13
2022-10-17T17:19:57.888Z,44.23
2022-10-17T17:21:59.410Z,43.31
2022-10-17T17:24:02.528Z,43.66
2022-10-17T17:26:13.361Z,43.73
2022-10-17T17:28:14.884Z,42.51
2022-10-17T17:30:16.616Z,42.54
2022-10-17T17:32:18.150Z,43.03
2022-10-17T17:34:19.756Z,43.31
2022-10-17T17:36:27.874Z,42.88
2022-10-17T17:38:30.952Z,43.53
2022-10-17T17:40:34.512Z,44.00
2022-10-17T17:42:36.043Z,44.01
2022-10-17T17:44:37.683Z,44.68
2022-10-17T17:46:39.508Z,44.54
2022-10-17T17:48:42.111Z,44.69
2022-10-17T17:50:44.234Z,45.18
2022-10-17T17:52:48.843Z,45.28
2022-10-17T17:54:50.486Z,45.57
2022-10-17T17:56:52.078Z,45.96
2022-10-17T17:59:03.101Z,47.12
2022-10-17T18:01:18.918Z,47.04
2022-10-17T18:03:20.551Z,45.92
2022-10-17T18:05:22.205Z,45.12
2022-10-17T18:07:24.514Z,44.37
2022-10-17T18:09:26.051Z,44.59
2022-10-17T18:11:28.648Z,44.33
2022-10-17T18:13:30.342Z,44.74
2022-10-17T18:15:31.985Z,45.16
2022-10-17T18:17:34.103Z,45.46
2022-10-17T18:19:35.864Z,45.94
2022-10-17T18:21:38.002Z,45.78
2022-10-17T18:23:41.041Z,45.47
2022-10-17T18:25:42.695Z,44.97
2022-10-17T18:27:44.303Z,45.02
2022-10-17T18:29:46.248Z,45.02
2022-10-17T18:31:47.836Z,46.10
2022-10-17T18:33:52.594Z,48.01
2022-10-17T18:35:58.104Z,54.84
2022-10-17T18:37:59.936Z,52.59
2022-10-17T18:40:03.203Z,50.80
2022-10-17T18:42:05.827Z,52.63
2022-10-17T18:44:07.368Z,49.03
2022-10-17T18:46:15.061Z,49.03
2022-10-17T18:48:16.776Z,47.46
2022-10-17T18:50:22.962Z,48.79
2022-10-17T18:52:24.859Z,50.25
2022-10-17T18:54:26.458Z,48.71
2022-10-17T18:56:28.595Z,48.11
2022-10-17T18:58:30.238Z,48.41
2022-10-17T19:00:31.827Z,47.49
2022-10-17T19:02:35.671Z,48.31
2022-10-17T19:04:40.263Z,48.03
2022-10-17T19:06:42.568Z,47.91
2022-10-17T19:08:45.296Z,47.40
2022-10-17T19:10:46.899Z,48.01
2022-10-17T19:12:48.540Z,47.57
2022-10-17T19:14:50.907Z,47.62
2022-10-17T19:16:52.845Z,47.92
2022-10-17T19:18:59.085Z,47.49
2022-10-17T19:21:11.185Z,48.02
2022-10-17T19:23:12.833Z,47.99
2022-10-17T19:25:15.539Z,47.88
2022-10-17T19:27:17.213Z,47.64
2022-10-17T19:29:19.709Z,47.57
2022-10-17T19:31:26.818Z,47.52
2022-10-17T19:35:35.995Z,47.42
2022-10-17T19:37:37.991Z,46.62
2022-10-17T19:39:39.624Z,48.46
2022-10-17T19:41:45.931Z,49.39
2022-10-17T19:43:47.499Z,48.73
2022-10-17T19:46:00.802Z,46.23
2022-10-17T19:48:02.431Z,46.44
2022-10-17T19:50:04.819Z,45.83
2022-10-17T19:59:21.961Z,46.47
2022-10-17T20:01:26.443Z,46.19
2022-10-17T20:03:30.066Z,46.58
2022-10-17T20:05:31.620Z,48.01
2022-10-17T20:07:33.254Z,47.42
2022-10-17T20:09:34.829Z,48.07
